sensor_id;sensor_type;location;lat;lon;timestamp;P1;durP1;ratioP1;P2;durP2;ratioP2
15317;SDS011;7759;52.528;13.346;2022-08-19T00:00:14;7.53;;;5.88;;
15317;SDS011;7759;52.528;13.346;2022-08-19T00:02:41;8.90;;;6.55;;
15317;SDS011;7759;52.528;13.346;2022-08-19T00:05:08;6.90;;;5.80;;
15317;SDS011;7759;52.528;13.346;2022-08-19T00:07:34;10.30;;;5.95;;
15317;SDS011;7759;52.528;13.346;2022-08-19T00:10:00;7.38;;;6.10;;
15317;SDS011;7759;52.528;13.346;2022-08-19T00:12:26;6.18;;;5.55;;
15317;SDS011;7759;52.528;13.346;2022-08-19T00:14:52;7.72;;;6.65;;
15317;SDS011;7759;52.528;13.346;2022-08-19T00:17:19;11.43;;;7.00;;
15317;SDS011;7759;52.528;13.346;2022-08-19T00:19:45;8.23;;;5.80;;
15317;SDS011;7759;52.528;13.346;2022-08-19T00:22:11;7.57;;;6.28;;
15317;SDS011;7759;52.528;13.346;2022-08-19T00:24:37;7.50;;;6.07;;
15317;SDS011;7759;52.528;13.346;2022-08-19T00:27:03;6.95;;;6.05;;
15317;SDS011;7759;52.528;13.346;2022-08-19T00:29:29;7.93;;;6.88;;
15317;SDS011;7759;52.528;13.346;2022-08-19T00:31:55;7.22;;;6.38;;
15317;SDS011;7759;52.528;13.346;2022-08-19T00:34:23;9.40;;;6.43;;
15317;SDS011;7759;52.528;13.346;2022-08-19T00:36:49;7.03;;;6.18;;
15317;SDS011;7759;52.528;13.346;2022-08-19T00:39:16;7.43;;;6.47;;
15317;SDS011;7759;52.528;13.346;2022-08-19T00:41:42;8.13;;;6.55;;
15317;SDS011;7759;52.528;13.346;2022-08-19T00:44:16;8.35;;;6.70;;
15317;SDS011;7759;52.528;13.346;2022-08-19T00:46:47;7.45;;;6.47;;
15317;SDS011;7759;52.528;13.346;2022-08-19T00:49:15;7.03;;;6.10;;
15317;SDS011;7759;52.528;13.346;2022-08-19T00:51:42;8.38;;;5.90;;
15317;SDS011;7759;52.528;13.346;2022-08-19T00:54:09;9.02;;;7.05;;
15317;SDS011;7759;52.528;13.346;2022-08-19T00:56:35;9.75;;;6.68;;
15317;SDS011;7759;52.528;13.346;2022-08-19T00:59:01;6.78;;;6.07;;
15317;SDS011;7759;52.528;13.346;2022-08-19T01:01:27;8.30;;;6.43;;
15317;SDS011;7759;52.528;13.346;2022-08-19T01:03:53;7.82;;;6.53;;
15317;SDS011;7759;52.528;13.346;2022-08-19T01:06:19;11.80;;;6.43;;
15317;SDS011;7759;52.528;13.346;2022-08-19T01:08:45;8.68;;;6.10;;
15317;SDS011;7759;52.528;13.346;2022-08-19T01:11:11;8.57;;;6.80;;
15317;SDS011;7759;52.528;13.346;2022-08-19T01:13:38;7.05;;;6.07;;
15317;SDS011;7759;52.528;13.346;2022-08-19T01:16:05;8.02;;;6.10;;
15317;SDS011;7759;52.528;13.346;2022-08-19T01:18:32;7.13;;;6.13;;
15317;SDS011;7759;52.528;13.346;2022-08-19T01:21:00;6.57;;;5.85;;
15317;SDS011;7759;52.528;13.346;2022-08-19T01:23:27;8.50;;;6.75;;
15317;SDS011;7759;52.528;13.346;2022-08-19T01:26:07;7.78;;;6.45;;
15317;SDS011;7759;52.528;13.346;2022-08-19T01:28:33;7.00;;;6.00;;
15317;SDS011;7759;52.528;13.346;2022-08-19T01:30:59;7.68;;;5.68;;
15317;SDS011;7759;52.528;13.346;2022-08-19T01:33:25;7.13;;;5.97;;
15317;SDS011;7759;52.528;13.346;2022-08-19T01:35:51;7.03;;;5.72;;
15317;SDS011;7759;52.528;13.346;2022-08-19T01:38:21;7.40;;;5.90;;
15317;SDS011;7759;52.528;13.346;2022-08-19T01:40:48;7.68;;;6.53;;
15317;SDS011;7759;52.528;13.346;2022-08-19T01:43:14;7.80;;;6.22;;
15317;SDS011;7759;52.528;13.346;2022-08-19T01:45:40;7.28;;;6.13;;
15317;SDS011;7759;52.528;13.346;2022-08-19T01:48:06;9.48;;;5.97;;
15317;SDS011;7759;52.528;13.346;2022-08-19T01:50:33;6.90;;;6.00;;
15317;SDS011;7759;52.528;13.346;2022-08-19T01:52:59;7.43;;;6.40;;
15317;SDS011;7759;52.528;13.346;2022-08-19T01:55:26;8.48;;;6.25;;
15317;SDS011;7759;52.528;13.346;2022-08-19T01:57:54;7.45;;;6.75;;
15317;SDS011;7759;52.528;13.346;2022-08-19T02:00:22;6.90;;;6.10;;
15317;SDS011;7759;52.528;13.346;2022-08-19T02:02:48;7.75;;;6.13;;
15317;SDS011;7759;52.528;13.346;2022-08-19T02:05:14;10.50;;;7.25;;
15317;SDS011;7759;52.528;13.346;2022-08-19T02:07:45;6.78;;;5.72;;
15317;SDS011;7759;52.528;13.346;2022-08-19T02:10:13;8.15;;;5.80;;
15317;SDS011;7759;52.528;13.346;2022-08-19T02:12:39;7.43;;;5.88;;
15317;SDS011;7759;52.528;13.346;2022-08-19T02:15:06;6.70;;;5.57;;
15317;SDS011;7759;52.528;13.346;2022-08-19T02:17:32;5.82;;;5.32;;
15317;SDS011;7759;52.528;13.346;2022-08-19T02:19:58;6.43;;;5.22;;
15317;SDS011;7759;52.528;13.346;2022-08-19T02:22:25;10.18;;;6.22;;
15317;SDS011;7759;52.528;13.346;2022-08-19T02:24:51;8.35;;;6.18;;
15317;SDS011;7759;52.528;13.346;2022-08-19T02:27:18;7.13;;;5.65;;
15317;SDS011;7759;52.528;13.346;2022-08-19T02:29:45;6.45;;;5.70;;
15317;SDS011;7759;52.528;13.346;2022-08-19T02:32:11;7.68;;;6.20;;
15317;SDS011;7759;52.528;13.346;2022-08-19T02:34:37;6.97;;;5.45;;
15317;SDS011;7759;52.528;13.346;2022-08-19T02:37:02;6.85;;;6.15;;
15317;SDS011;7759;52.528;13.346;2022-08-19T02:39:28;5.50;;;5.00;;
15317;SDS011;7759;52.528;13.346;2022-08-19T02:41:54;8.52;;;6.28;;
15317;SDS011;7759;52.528;13.346;2022-08-19T02:44:20;11.63;;;6.15;;
15317;SDS011;7759;52.528;13.346;2022-08-19T02:46:46;9.50;;;5.57;;
15317;SDS011;7759;52.528;13.346;2022-08-19T02:49:12;8.45;;;6.40;;
15317;SDS011;7759;52.528;13.346;2022-08-19T02:51:41;11.57;;;8.15;;
15317;SDS011;7759;52.528;13.346;2022-08-19T02:54:08;8.10;;;6.78;;
15317;SDS011;7759;52.528;13.346;2022-08-19T02:56:35;6.35;;;5.68;;
15317;SDS011;7759;52.528;13.346;2022-08-19T02:59:01;7.60;;;6.63;;
15317;SDS011;7759;52.528;13.346;2022-08-19T03:01:30;8.10;;;7.05;;
15317;SDS011;7759;52.528;13.346;2022-08-19T03:03:57;8.48;;;7.32;;
15317;SDS011;7759;52.528;13.346;2022-08-19T03:06:24;7.72;;;6.53;;
15317;SDS011;7759;52.528;13.346;2022-08-19T03:08:50;9.60;;;6.50;;
15317;SDS011;7759;52.528;13.346;2022-08-19T03:11:20;10.65;;;7.38;;
15317;SDS011;7759;52.528;13.346;2022-08-19T03:13:46;9.57;;;7.05;;
15317;SDS011;7759;52.528;13.346;2022-08-19T03:16:14;8.32;;;6.75;;
15317;SDS011;7759;52.528;13.346;2022-08-19T03:18:40;7.70;;;6.55;;
15317;SDS011;7759;52.528;13.346;2022-08-19T03:21:06;9.90;;;6.35;;
15317;SDS011;7759;52.528;13.346;2022-08-19T03:23:32;8.02;;;6.80;;
15317;SDS011;7759;52.528;13.346;2022-08-19T03:25:58;8.43;;;7.55;;
15317;SDS011;7759;52.528;13.346;2022-08-19T03:28:24;9.70;;;7.80;;
15317;SDS011;7759;52.528;13.346;2022-08-19T03:30:57;8.23;;;6.57;;
15317;SDS011;7759;52.528;13.346;2022-08-19T03:33:24;9.40;;;8.00;;
15317;SDS011;7759;52.528;13.346;2022-08-19T03:36:03;8.43;;;7.20;;
15317;SDS011;7759;52.528;13.346;2022-08-19T03:38:30;8.50;;;7.20;;
15317;SDS011;7759;52.528;13.346;2022-08-19T03:40:57;11.10;;;8.05;;
15317;SDS011;7759;52.528;13.346;2022-08-19T03:43:23;10.65;;;8.23;;
15317;SDS011;7759;52.528;13.346;2022-08-19T03:45:49;10.57;;;7.35;;
15317;SDS011;7759;52.528;13.346;2022-08-19T03:48:24;8.77;;;7.35;;
15317;SDS011;7759;52.528;13.346;2022-08-19T03:50:50;10.75;;;8.40;;
15317;SDS011;7759;52.528;13.346;2022-08-19T03:53:16;10.18;;;8.02;;
15317;SDS011;7759;52.528;13.346;2022-08-19T03:55:42;8.68;;;7.35;;
15317;SDS011;7759;52.528;13.346;2022-08-19T03:58:08;10.98;;;8.18;;
15317;SDS011;7759;52.528;13.346;2022-08-19T04:00:35;8.05;;;6.97;;
15317;SDS011;7759;52.528;13.346;2022-08-19T04:03:01;11.35;;;8.75;;
15317;SDS011;7759;52.528;13.346;2022-08-19T04:05:28;12.20;;;9.70;;
15317;SDS011;7759;52.528;13.346;2022-08-19T04:07:54;9.88;;;8.65;;
15317;SDS011;7759;52.528;13.346;2022-08-19T04:10:23;10.95;;;8.77;;
15317;SDS011;7759;52.528;13.346;2022-08-19T04:12:49;10.68;;;9.07;;
15317;SDS011;7759;52.528;13.346;2022-08-19T04:15:15;11.73;;;8.25;;
15317;SDS011;7759;52.528;13.346;2022-08-19T04:17:41;11.93;;;10.02;;
15317;SDS011;7759;52.528;13.346;2022-08-19T04:20:07;12.60;;;9.68;;
15317;SDS011;7759;52.528;13.346;2022-08-19T04:22:33;12.88;;;9.48;;
15317;SDS011;7759;52.528;13.346;2022-08-19T04:24:59;9.73;;;8.15;;
15317;SDS011;7759;52.528;13.346;2022-08-19T04:27:25;11.40;;;8.48;;
15317;SDS011;7759;52.528;13.346;2022-08-19T04:29:51;10.32;;;9.25;;
15317;SDS011;7759;52.528;13.346;2022-08-19T04:32:19;12.73;;;10.02;;
15317;SDS011;7759;52.528;13.346;2022-08-19T04:34:45;12.68;;;10.25;;
15317;SDS011;7759;52.528;13.346;2022-08-19T04:37:11;13.82;;;9.88;;
15317;SDS011;7759;52.528;13.346;2022-08-19T04:39:39;11.13;;;9.57;;
15317;SDS011;7759;52.528;13.346;2022-08-19T04:42:23;8.77;;;7.88;;
15317;SDS011;7759;52.528;13.346;2022-08-19T04:45:09;8.32;;;6.70;;
15317;SDS011;7759;52.528;13.346;2022-08-19T04:47:37;8.95;;;7.35;;
15317;SDS011;7759;52.528;13.346;2022-08-19T04:50:03;6.43;;;5.82;;
15317;SDS011;7759;52.528;13.346;2022-08-19T04:52:29;9.48;;;7.50;;
15317;SDS011;7759;52.528;13.346;2022-08-19T04:54:56;8.63;;;7.40;;
15317;SDS011;7759;52.528;13.346;2022-08-19T04:57:22;8.85;;;6.70;;
15317;SDS011;7759;52.528;13.346;2022-08-19T04:59:48;10.07;;;7.43;;
15317;SDS011;7759;52.528;13.346;2022-08-19T05:02:14;9.43;;;7.10;;
15317;SDS011;7759;52.528;13.346;2022-08-19T05:04:40;8.93;;;8.02;;
15317;SDS011;7759;52.528;13.346;2022-08-19T05:07:09;8.13;;;6.93;;
15317;SDS011;7759;52.528;13.346;2022-08-19T05:09:35;8.75;;;7.45;;
15317;SDS011;7759;52.528;13.346;2022-08-19T05:12:01;7.72;;;6.55;;
15317;SDS011;7759;52.528;13.346;2022-08-19T05:14:27;10.18;;;7.60;;
15317;SDS011;7759;52.528;13.346;2022-08-19T05:16:53;9.32;;;7.43;;
15317;SDS011;7759;52.528;13.346;2022-08-19T05:19:19;7.93;;;7.13;;
15317;SDS011;7759;52.528;13.346;2022-08-19T05:22:04;12.80;;;8.48;;
15317;SDS011;7759;52.528;13.346;2022-08-19T05:24:48;10.10;;;7.55;;
15317;SDS011;7759;52.528;13.346;2022-08-19T05:27:14;10.98;;;9.05;;
15317;SDS011;7759;52.528;13.346;2022-08-19T05:29:40;8.23;;;7.30;;
15317;SDS011;7759;52.528;13.346;2022-08-19T05:32:06;8.77;;;7.40;;
15317;SDS011;7759;52.528;13.346;2022-08-19T05:34:33;11.23;;;8.98;;
15317;SDS011;7759;52.528;13.346;2022-08-19T05:37:01;12.70;;;8.50;;
15317;SDS011;7759;52.528;13.346;2022-08-19T05:39:29;10.57;;;7.47;;
15317;SDS011;7759;52.528;13.346;2022-08-19T05:41:58;8.60;;;7.63;;
15317;SDS011;7759;52.528;13.346;2022-08-19T05:44:25;10.05;;;7.57;;
15317;SDS011;7759;52.528;13.346;2022-08-19T05:46:51;10.95;;;8.73;;
15317;SDS011;7759;52.528;13.346;2022-08-19T05:49:21;11.45;;;9.43;;
15317;SDS011;7759;52.528;13.346;2022-08-19T05:51:47;9.05;;;7.82;;
15317;SDS011;7759;52.528;13.346;2022-08-19T05:54:13;10.55;;;7.50;;
15317;SDS011;7759;52.528;13.346;2022-08-19T05:56:40;10.45;;;9.02;;
15317;SDS011;7759;52.528;13.346;2022-08-19T05:59:07;10.93;;;8.40;;
15317;SDS011;7759;52.528;13.346;2022-08-19T06:01:37;9.50;;;7.35;;
15317;SDS011;7759;52.528;13.346;2022-08-19T06:04:03;9.95;;;8.63;;
15317;SDS011;7759;52.528;13.346;2022-08-19T06:06:29;8.48;;;7.00;;
15317;SDS011;7759;52.528;13.346;2022-08-19T06:08:55;9.85;;;7.38;;
15317;SDS011;7759;52.528;13.346;2022-08-19T06:11:22;10.30;;;7.50;;
15317;SDS011;7759;52.528;13.346;2022-08-19T06:13:50;14.00;;;8.15;;
15317;SDS011;7759;52.528;13.346;2022-08-19T06:16:18;10.13;;;9.07;;
15317;SDS011;7759;52.528;13.346;2022-08-19T06:18:56;11.20;;;9.85;;
15317;SDS011;7759;52.528;13.346;2022-08-19T06:21:24;9.75;;;8.75;;
15317;SDS011;7759;52.528;13.346;2022-08-19T06:23:52;10.50;;;8.45;;
15317;SDS011;7759;52.528;13.346;2022-08-19T06:26:19;11.75;;;8.45;;
15317;SDS011;7759;52.528;13.346;2022-08-19T06:28:46;10.77;;;7.38;;
15317;SDS011;7759;52.528;13.346;2022-08-19T06:31:13;9.43;;;7.65;;
15317;SDS011;7759;52.528;13.346;2022-08-19T06:33:40;8.13;;;7.15;;
15317;SDS011;7759;52.528;13.346;2022-08-19T06:36:07;10.75;;;8.48;;
15317;SDS011;7759;52.528;13.346;2022-08-19T06:38:33;9.80;;;7.78;;
15317;SDS011;7759;52.528;13.346;2022-08-19T06:41:00;10.02;;;8.85;;
15317;SDS011;7759;52.528;13.346;2022-08-19T06:43:26;10.77;;;9.50;;
15317;SDS011;7759;52.528;13.346;2022-08-19T06:45:51;9.30;;;7.80;;
15317;SDS011;7759;52.528;13.346;2022-08-19T06:48:17;11.85;;;8.57;;
15317;SDS011;7759;52.528;13.346;2022-08-19T06:50:45;8.93;;;7.72;;
15317;SDS011;7759;52.528;13.346;2022-08-19T06:53:12;10.13;;;8.38;;
15317;SDS011;7759;52.528;13.346;2022-08-19T06:55:38;9.48;;;8.30;;
15317;SDS011;7759;52.528;13.346;2022-08-19T06:58:05;11.90;;;10.35;;
15317;SDS011;7759;52.528;13.346;2022-08-19T07:00:31;11.20;;;9.30;;
15317;SDS011;7759;52.528;13.346;2022-08-19T07:02:57;11.73;;;9.90;;
15317;SDS011;7759;52.528;13.346;2022-08-19T07:05:23;13.65;;;10.98;;
15317;SDS011;7759;52.528;13.346;2022-08-19T07:07:49;14.98;;;9.27;;
15317;SDS011;7759;52.528;13.346;2022-08-19T07:10:15;11.38;;;8.43;;
15317;SDS011;7759;52.528;13.346;2022-08-19T07:12:41;10.18;;;8.02;;
15317;SDS011;7759;52.528;13.346;2022-08-19T07:15:07;10.95;;;8.48;;
15317;SDS011;7759;52.528;13.346;2022-08-19T07:17:34;9.73;;;8.30;;
15317;SDS011;7759;52.528;13.346;2022-08-19T07:20:02;9.85;;;8.85;;
15317;SDS011;7759;52.528;13.346;2022-08-19T07:22:28;11.02;;;9.40;;
15317;SDS011;7759;52.528;13.346;2022-08-19T07:24:54;12.98;;;10.55;;
15317;SDS011;7759;52.528;13.346;2022-08-19T07:27:21;12.75;;;10.38;;
15317;SDS011;7759;52.528;13.346;2022-08-19T07:29:47;13.30;;;9.77;;
15317;SDS011;7759;52.528;13.346;2022-08-19T07:32:12;10.73;;;8.02;;
15317;SDS011;7759;52.528;13.346;2022-08-19T07:34:38;9.60;;;8.00;;
15317;SDS011;7759;52.528;13.346;2022-08-19T07:37:05;10.02;;;7.80;;
15317;SDS011;7759;52.528;13.346;2022-08-19T07:39:32;12.55;;;8.77;;
15317;SDS011;7759;52.528;13.346;2022-08-19T07:41:59;10.55;;;8.35;;
15317;SDS011;7759;52.528;13.346;2022-08-19T07:44:26;11.90;;;9.27;;
15317;SDS011;7759;52.528;13.346;2022-08-19T07:46:53;9.05;;;8.15;;
15317;SDS011;7759;52.528;13.346;2022-08-19T07:49:20;10.65;;;9.45;;
15317;SDS011;7759;52.528;13.346;2022-08-19T07:51:49;10.88;;;8.73;;
15317;SDS011;7759;52.528;13.346;2022-08-19T07:54:15;13.13;;;8.52;;
15317;SDS011;7759;52.528;13.346;2022-08-19T07:56:41;10.18;;;8.35;;
15317;SDS011;7759;52.528;13.346;2022-08-19T07:59:07;10.52;;;8.55;;
15317;SDS011;7759;52.528;13.346;2022-08-19T08:01:34;10.52;;;8.27;;
15317;SDS011;7759;52.528;13.346;2022-08-19T08:04:00;7.93;;;7.03;;
15317;SDS011;7759;52.528;13.346;2022-08-19T08:06:44;11.82;;;8.98;;
15317;SDS011;7759;52.528;13.346;2022-08-19T08:09:31;11.70;;;9.38;;
15317;SDS011;7759;52.528;13.346;2022-08-19T08:11:59;9.30;;;7.38;;
15317;SDS011;7759;52.528;13.346;2022-08-19T08:14:27;9.38;;;7.97;;
15317;SDS011;7759;52.528;13.346;2022-08-19T08:16:53;10.27;;;8.48;;
15317;SDS011;7759;52.528;13.346;2022-08-19T08:19:20;9.43;;;8.52;;
15317;SDS011;7759;52.528;13.346;2022-08-19T08:21:47;10.52;;;8.45;;
15317;SDS011;7759;52.528;13.346;2022-08-19T08:24:13;12.43;;;9.02;;
15317;SDS011;7759;52.528;13.346;2022-08-19T08:26:39;9.10;;;7.78;;
15317;SDS011;7759;52.528;13.346;2022-08-19T08:29:06;9.68;;;8.68;;
15317;SDS011;7759;52.528;13.346;2022-08-19T08:31:35;10.43;;;8.68;;
15317;SDS011;7759;52.528;13.346;2022-08-19T08:34:01;11.85;;;8.05;;
15317;SDS011;7759;52.528;13.346;2022-08-19T08:36:27;11.63;;;9.32;;
15317;SDS011;7759;52.528;13.346;2022-08-19T08:38:53;8.50;;;7.57;;
15317;SDS011;7759;52.528;13.346;2022-08-19T08:41:34;11.68;;;10.05;;
15317;SDS011;7759;52.528;13.346;2022-08-19T08:44:03;10.23;;;8.98;;
15317;SDS011;7759;52.528;13.346;2022-08-19T08:46:38;10.52;;;9.35;;
15317;SDS011;7759;52.528;13.346;2022-08-19T08:49:15;9.05;;;8.15;;
15317;SDS011;7759;52.528;13.346;2022-08-19T08:51:44;8.63;;;7.72;;
15317;SDS011;7759;52.528;13.346;2022-08-19T08:54:13;9.10;;;8.15;;
15317;SDS011;7759;52.528;13.346;2022-08-19T08:56:40;10.13;;;8.57;;
15317;SDS011;7759;52.528;13.346;2022-08-19T08:59:10;8.43;;;7.63;;
15317;SDS011;7759;52.528;13.346;2022-08-19T09:01:38;11.95;;;8.32;;
15317;SDS011;7759;52.528;13.346;2022-08-19T09:04:05;10.13;;;8.80;;
15317;SDS011;7759;52.528;13.346;2022-08-19T09:06:35;9.75;;;7.72;;
15317;SDS011;7759;52.528;13.346;2022-08-19T09:09:10;7.55;;;6.47;;
15317;SDS011;7759;52.528;13.346;2022-08-19T09:14:17;11.50;;;9.57;;
15317;SDS011;7759;52.528;13.346;2022-08-19T09:16:45;9.88;;;8.52;;
15317;SDS011;7759;52.528;13.346;2022-08-19T09:19:11;7.97;;;7.15;;
15317;SDS011;7759;52.528;13.346;2022-08-19T09:21:37;12.00;;;8.98;;
15317;SDS011;7759;52.528;13.346;2022-08-19T09:24:03;7.00;;;6.30;;
15317;SDS011;7759;52.528;13.346;2022-08-19T09:26:30;12.60;;;8.02;;
15317;SDS011;7759;52.528;13.346;2022-08-19T09:28:57;10.98;;;9.52;;
15317;SDS011;7759;52.528;13.346;2022-08-19T09:31:25;9.40;;;7.47;;
15317;SDS011;7759;52.528;13.346;2022-08-19T09:33:51;12.02;;;8.90;;
15317;SDS011;7759;52.528;13.346;2022-08-19T09:36:21;7.95;;;7.15;;
15317;SDS011;7759;52.528;13.346;2022-08-19T09:38:48;8.88;;;6.63;;
15317;SDS011;7759;52.528;13.346;2022-08-19T09:41:15;12.05;;;8.45;;
15317;SDS011;7759;52.528;13.346;2022-08-19T09:43:46;18.25;;;8.38;;
15317;SDS011;7759;52.528;13.346;2022-08-19T09:46:13;9.43;;;8.20;;
15317;SDS011;7759;52.528;13.346;2022-08-19T09:48:39;8.73;;;7.80;;
15317;SDS011;7759;52.528;13.346;2022-08-19T09:51:07;7.60;;;6.75;;
15317;SDS011;7759;52.528;13.346;2022-08-19T09:53:34;9.20;;;7.97;;
15317;SDS011;7759;52.528;13.346;2022-08-19T09:56:00;6.95;;;6.25;;
15317;SDS011;7759;52.528;13.346;2022-08-19T09:58:26;7.97;;;7.18;;
15317;SDS011;7759;52.528;13.346;2022-08-19T10:00:54;10.23;;;8.60;;
15317;SDS011;7759;52.528;13.346;2022-08-19T10:03:20;8.75;;;6.55;;
15317;SDS011;7759;52.528;13.346;2022-08-19T10:05:46;8.10;;;6.95;;
15317;SDS011;7759;52.528;13.346;2022-08-19T10:08:12;7.30;;;6.13;;
15317;SDS011;7759;52.528;13.346;2022-08-19T10:10:38;6.32;;;5.68;;
15317;SDS011;7759;52.528;13.346;2022-08-19T10:13:04;8.13;;;6.28;;
15317;SDS011;7759;52.528;13.346;2022-08-19T10:15:31;18.75;;;8.25;;
15317;SDS011;7759;52.528;13.346;2022-08-19T10:17:57;13.60;;;8.52;;
15317;SDS011;7759;52.528;13.346;2022-08-19T10:20:24;7.90;;;6.45;;
15317;SDS011;7759;52.528;13.346;2022-08-19T10:22:50;9.98;;;8.05;;
15317;SDS011;7759;52.528;13.346;2022-08-19T10:25:15;11.45;;;9.05;;
15317;SDS011;7759;52.528;13.346;2022-08-19T10:27:42;12.73;;;9.30;;
15317;SDS011;7759;52.528;13.346;2022-08-19T10:30:08;9.85;;;8.05;;
15317;SDS011;7759;52.528;13.346;2022-08-19T10:32:34;10.07;;;8.63;;
15317;SDS011;7759;52.528;13.346;2022-08-19T10:35:01;9.50;;;8.43;;
15317;SDS011;7759;52.528;13.346;2022-08-19T10:37:27;11.50;;;8.07;;
15317;SDS011;7759;52.528;13.346;2022-08-19T10:39:55;9.30;;;8.25;;
15317;SDS011;7759;52.528;13.346;2022-08-19T10:42:22;9.43;;;7.68;;
15317;SDS011;7759;52.528;13.346;2022-08-19T10:44:48;8.65;;;7.60;;
15317;SDS011;7759;52.528;13.346;2022-08-19T10:47:15;11.65;;;9.07;;
15317;SDS011;7759;52.528;13.346;2022-08-19T10:49:41;9.75;;;8.70;;
15317;SDS011;7759;52.528;13.346;2022-08-19T10:52:25;9.95;;;7.57;;
15317;SDS011;7759;52.528;13.346;2022-08-19T10:55:04;10.43;;;8.93;;
15317;SDS011;7759;52.528;13.346;2022-08-19T10:57:48;9.10;;;8.15;;
15317;SDS011;7759;52.528;13.346;2022-08-19T11:00:14;11.07;;;9.40;;
15317;SDS011;7759;52.528;13.346;2022-08-19T11:02:40;11.10;;;9.93;;
15317;SDS011;7759;52.528;13.346;2022-08-19T11:05:07;9.15;;;8.25;;
15317;SDS011;7759;52.528;13.346;2022-08-19T11:07:35;10.90;;;7.88;;
15317;SDS011;7759;52.528;13.346;2022-08-19T11:10:02;8.02;;;7.07;;
15317;SDS011;7759;52.528;13.346;2022-08-19T11:12:28;7.70;;;6.88;;
15317;SDS011;7759;52.528;13.346;2022-08-19T11:14:54;8.05;;;6.60;;
15317;SDS011;7759;52.528;13.346;2022-08-19T11:17:20;10.65;;;7.10;;
15317;SDS011;7759;52.528;13.346;2022-08-19T11:19:48;10.13;;;9.13;;
15317;SDS011;7759;52.528;13.346;2022-08-19T11:22:14;12.43;;;10.75;;
15317;SDS011;7759;52.528;13.346;2022-08-19T11:24:40;8.98;;;7.53;;
15317;SDS011;7759;52.528;13.346;2022-08-19T11:27:07;9.82;;;7.10;;
15317;SDS011;7759;52.528;13.346;2022-08-19T11:29:34;8.30;;;7.40;;
15317;SDS011;7759;52.528;13.346;2022-08-19T11:32:02;9.95;;;8.20;;
15317;SDS011;7759;52.528;13.346;2022-08-19T11:34:29;8.30;;;6.90;;
15317;SDS011;7759;52.528;13.346;2022-08-19T11:36:56;7.97;;;7.18;;
15317;SDS011;7759;52.528;13.346;2022-08-19T11:39:23;8.93;;;7.22;;
15317;SDS011;7759;52.528;13.346;2022-08-19T11:41:49;8.77;;;7.68;;
15317;SDS011;7759;52.528;13.346;2022-08-19T11:44:15;8.07;;;6.85;;
15317;SDS011;7759;52.528;13.346;2022-08-19T11:46:42;8.40;;;7.47;;
15317;SDS011;7759;52.528;13.346;2022-08-19T11:49:11;9.85;;;7.40;;
15317;SDS011;7759;52.528;13.346;2022-08-19T11:51:37;7.88;;;6.68;;
15317;SDS011;7759;52.528;13.346;2022-08-19T11:54:04;7.57;;;6.88;;
15317;SDS011;7759;52.528;13.346;2022-08-19T11:56:30;7.55;;;6.30;;
15317;SDS011;7759;52.528;13.346;2022-08-19T11:58:56;6.43;;;5.82;;
15317;SDS011;7759;52.528;13.346;2022-08-19T12:01:23;7.47;;;6.72;;
15317;SDS011;7759;52.528;13.346;2022-08-19T12:03:50;7.75;;;6.53;;
15317;SDS011;7759;52.528;13.346;2022-08-19T12:06:17;7.68;;;6.15;;
15317;SDS011;7759;52.528;13.346;2022-08-19T12:08:44;7.85;;;7.13;;
15317;SDS011;7759;52.528;13.346;2022-08-19T12:11:11;8.05;;;7.25;;
15317;SDS011;7759;52.528;13.346;2022-08-19T12:13:37;6.78;;;6.05;;
15317;SDS011;7759;52.528;13.346;2022-08-19T12:16:10;8.77;;;6.55;;
15317;SDS011;7759;52.528;13.346;2022-08-19T12:18:37;6.82;;;6.13;;
15317;SDS011;7759;52.528;13.346;2022-08-19T12:21:03;8.43;;;6.05;;
15317;SDS011;7759;52.528;13.346;2022-08-19T12:23:29;7.60;;;6.00;;
15317;SDS011;7759;52.528;13.346;2022-08-19T12:25:56;6.10;;;5.18;;
15317;SDS011;7759;52.528;13.346;2022-08-19T12:28:23;7.85;;;6.97;;
15317;SDS011;7759;52.528;13.346;2022-08-19T12:30:49;8.30;;;6.05;;
15317;SDS011;7759;52.528;13.346;2022-08-19T12:33:16;5.85;;;5.30;;
15317;SDS011;7759;52.528;13.346;2022-08-19T12:35:42;7.15;;;5.93;;
15317;SDS011;7759;52.528;13.346;2022-08-19T12:38:10;8.32;;;6.38;;
15317;SDS011;7759;52.528;13.346;2022-08-19T12:40:36;7.70;;;6.15;;
15317;SDS011;7759;52.528;13.346;2022-08-19T12:43:04;7.57;;;6.25;;
15317;SDS011;7759;52.528;13.346;2022-08-19T12:45:30;5.60;;;4.95;;
15317;SDS011;7759;52.528;13.346;2022-08-19T12:47:56;5.88;;;4.82;;
15317;SDS011;7759;52.528;13.346;2022-08-19T12:50:22;6.13;;;5.40;;
15317;SDS011;7759;52.528;13.346;2022-08-19T12:52:48;6.88;;;5.35;;
15317;SDS011;7759;52.528;13.346;2022-08-19T12:55:14;6.28;;;5.57;;
15317;SDS011;7759;52.528;13.346;2022-08-19T12:57:40;10.52;;;7.75;;
15317;SDS011;7759;52.528;13.346;2022-08-19T13:00:08;7.85;;;6.38;;
15317;SDS011;7759;52.528;13.346;2022-08-19T13:02:37;9.50;;;7.40;;
15317;SDS011;7759;52.528;13.346;2022-08-19T13:05:03;8.95;;;7.53;;
15317;SDS011;7759;52.528;13.346;2022-08-19T13:07:31;8.40;;;6.55;;
15317;SDS011;7759;52.528;13.346;2022-08-19T13:09:57;8.02;;;6.93;;
15317;SDS011;7759;52.528;13.346;2022-08-19T13:12:26;7.75;;;6.95;;
15317;SDS011;7759;52.528;13.346;2022-08-19T13:14:55;9.13;;;6.60;;
15317;SDS011;7759;52.528;13.346;2022-08-19T13:17:21;8.85;;;6.53;;
15317;SDS011;7759;52.528;13.346;2022-08-19T13:19:47;6.55;;;5.63;;
15317;SDS011;7759;52.528;13.346;2022-08-19T13:22:13;8.02;;;7.00;;
15317;SDS011;7759;52.528;13.346;2022-08-19T13:24:39;8.00;;;6.85;;
15317;SDS011;7759;52.528;13.346;2022-08-19T13:27:06;10.05;;;8.27;;
15317;SDS011;7759;52.528;13.346;2022-08-19T13:29:32;7.32;;;6.07;;
15317;SDS011;7759;52.528;13.346;2022-08-19T13:32:16;6.85;;;5.80;;
15317;SDS011;7759;52.528;13.346;2022-08-19T13:35:02;8.15;;;7.13;;
15317;SDS011;7759;52.528;13.346;2022-08-19T13:37:28;7.70;;;6.60;;
15317;SDS011;7759;52.528;13.346;2022-08-19T13:40:06;10.32;;;7.05;;
15317;SDS011;7759;52.528;13.346;2022-08-19T13:42:32;9.35;;;7.20;;
15317;SDS011;7759;52.528;13.346;2022-08-19T13:44:58;7.20;;;6.50;;
15317;SDS011;7759;52.528;13.346;2022-08-19T13:47:24;6.68;;;5.88;;
15317;SDS011;7759;52.528;13.346;2022-08-19T13:49:50;6.95;;;5.97;;
15317;SDS011;7759;52.528;13.346;2022-08-19T13:52:16;8.52;;;7.70;;
15317;SDS011;7759;52.528;13.346;2022-08-19T13:54:42;8.02;;;6.82;;
15317;SDS011;7759;52.528;13.346;2022-08-19T13:57:08;10.60;;;7.20;;
15317;SDS011;7759;52.528;13.346;2022-08-19T13:59:34;9.27;;;7.00;;
15317;SDS011;7759;52.528;13.346;2022-08-19T14:02:00;7.20;;;6.47;;
15317;SDS011;7759;52.528;13.346;2022-08-19T14:04:26;8.65;;;7.63;;
15317;SDS011;7759;52.528;13.346;2022-08-19T14:06:52;8.05;;;7.25;;
15317;SDS011;7759;52.528;13.346;2022-08-19T14:09:19;8.55;;;7.35;;
15317;SDS011;7759;52.528;13.346;2022-08-19T14:11:44;8.00;;;6.93;;
15317;SDS011;7759;52.528;13.346;2022-08-19T14:14:11;8.15;;;6.85;;
15317;SDS011;7759;52.528;13.346;2022-08-19T14:16:37;9.63;;;7.97;;
15317;SDS011;7759;52.528;13.346;2022-08-19T14:19:03;8.52;;;7.72;;
15317;SDS011;7759;52.528;13.346;2022-08-19T14:21:29;7.63;;;6.75;;
15317;SDS011;7759;52.528;13.346;2022-08-19T14:23:55;6.85;;;6.18;;
15317;SDS011;7759;52.528;13.346;2022-08-19T14:26:21;6.22;;;5.63;;
15317;SDS011;7759;52.528;13.346;2022-08-19T14:28:47;7.03;;;6.40;;
15317;SDS011;7759;52.528;13.346;2022-08-19T14:31:14;7.60;;;6.65;;
15317;SDS011;7759;52.528;13.346;2022-08-19T14:36:26;7.93;;;6.97;;
15317;SDS011;7759;52.528;13.346;2022-08-19T14:38:53;8.55;;;7.05;;
15317;SDS011;7759;52.528;13.346;2022-08-19T14:41:20;6.85;;;6.15;;
15317;SDS011;7759;52.528;13.346;2022-08-19T14:43:48;9.40;;;7.28;;
15317;SDS011;7759;52.528;13.346;2022-08-19T14:46:15;7.60;;;6.50;;
15317;SDS011;7759;52.528;13.346;2022-08-19T14:48:41;8.13;;;7.05;;